KACK/ACK METAR and TAF weather

Enter ICAO airport designator
Station Type Date Time Source
KACK METAR 2018/07/21 21:53 UTC NOAA

KACK 212153Z 09012KT 10SM OVC005 17/16 A3012 RMK AO2 SLP198 T01720161


Station Type Date Time Source
KACK Decoded METAR 2018/07/21 21:53 UTC NOAA

NANTUCKET MEMORIAL AIRPORT, MA, United States (KACK) 41-15N 70-04W 16M
Jul 21, 2018 - 05:53 PM EDT / 2018.07.21 2153 UTC
Wind: from the E (090 degrees) at 14 MPH (12 KT):0
Visibility: 10 mile(s):0
Sky conditions: overcast
Temperature: 63.0 F (17.2 C)
Dew Point: 61.0 F (16.1 C)
Relative Humidity: 93%
Pressure (altimeter): 30.12 in. Hg (1019 hPa)
ob: KACK 212153Z 09012KT 10SM OVC005 17/16 A3012 RMK AO2 SLP198 T01720161
cycle: 22

Station Type Date Time Source
KACK TAF 2018/07/21 21:24 UTC NOAA

TAF
AMD KACK 212122Z 2121/2218 09012KT P6SM BKN007
FM220000 10012KT 1/2SM FG OVC003
FM221300 15016KT 1/2SM -SHRA FG OVC003
FM221400 15016KT 1SM -SHRA BR OVC003
FM221600 15016KT 3SM BR VCSH OVC010


Example: see airport list